Time;durP1;ratioP1;P1;durP2;ratioP2;P2;SDS_P1;SDS_P2;PMS_P1;PMS_P2;Temp;Humidity;BMP_temperature;BMP_pressure;BME280_temperature;BME280_humidity;BME280_pressure;Samples;Min_cycle;Max_cycle;Signal;HPM_P1;HPM_P2
2022/03/23 00:00:21;;;;;;;54.90;46.37;;;;;22.00;101879.00;;;;2077974;28;20205;-50
2022/03/23 00:01:21;;;;;;;52.67;45.43;;;;;22.00;101872.00;;;;2069528;28;20276;-51
2022/03/23 00:02:25;;;;;;;52.40;44.07;;;;;22.00;101872.00;;;;2069711;28;20729;-48
2022/03/23 00:03:28;;;;;;;50.97;41.55;;;;;22.00;101879.00;;;;2068610;28;20276;-49
2022/03/23 00:04:29;;;;;;;59.83;46.97;;;;;22.00;101875.00;;;;2069673;28;20301;-49
2022/03/23 00:05:29;;;;;;;47.90;39.77;;;;;22.00;101879.00;;;;2068180;28;20221;-50
2022/03/23 00:06:30;;;;;;;50.50;42.13;;;;;22.00;101879.00;;;;2071776;28;20216;-50
2022/03/23 00:07:30;;;;;;;50.43;41.70;;;;;22.00;101878.00;;;;2070989;28;20221;-50
2022/03/23 00:08:30;;;;;;;55.43;43.80;;;;;22.00;101878.00;;;;2072252;28;20263;-49
2022/03/23 00:09:31;;;;;;;51.77;42.17;;;;;22.00;101879.00;;;;2079967;28;20289;-49
2022/03/23 00:10:31;;;;;;;44.30;37.10;;;;;22.00;101884.00;;;;2079615;28;20301;-50
2022/03/23 00:11:33;;;;;;;44.10;38.83;;;;;22.00;101875.00;;;;2079239;28;20212;-51
2022/03/23 00:12:34;;;;;;;49.70;40.28;;;;;22.00;101877.00;;;;2075387;28;20214;-49
2022/03/23 00:13:35;;;;;;;46.90;40.15;;;;;22.00;101872.00;;;;2078859;28;20213;-48
2022/03/23 00:14:35;;;;;;;46.70;38.87;;;;;22.00;101876.00;;;;2079738;28;20222;-49
2022/03/23 00:15:35;;;;;;;43.07;37.17;;;;;22.00;101870.00;;;;2076066;28;20666;-49
2022/03/23 00:16:37;;;;;;;41.93;35.43;;;;;22.00;101877.00;;;;2071844;28;20698;-49
2022/03/23 00:17:37;;;;;;;47.38;39.63;;;;;22.00;101876.00;;;;2070740;28;20309;-48
2022/03/23 00:18:37;;;;;;;41.90;35.07;;;;;22.00;101876.00;;;;2071283;28;20710;-49
2022/03/23 00:19:38;;;;;;;42.50;36.67;;;;;22.00;101876.00;;;;2071088;28;20234;-49
2022/03/23 00:20:39;;;;;;;43.00;35.60;;;;;22.00;101876.00;;;;2071005;28;20939;-49
2022/03/23 00:21:40;;;;;;;44.03;37.40;;;;;22.00;101877.00;;;;2071648;28;20236;-49
2022/03/23 00:22:40;;;;;;;40.63;33.80;;;;;21.90;101878.00;;;;2070831;28;20276;-49
2022/03/23 00:23:41;;;;;;;42.20;34.20;;;;;21.90;101872.00;;;;2071341;28;20235;-49
2022/03/23 00:24:41;;;;;;;45.33;38.57;;;;;21.90;101870.00;;;;2070649;28;20302;-49
2022/03/23 00:25:42;;;;;;;40.07;33.77;;;;;21.90;101872.00;;;;2070808;28;20219;-48
2022/03/23 00:26:42;;;;;;;37.10;31.60;;;;;21.90;101872.00;;;;2076873;28;20589;-49
2022/03/23 00:27:43;;;;;;;40.10;33.70;;;;;21.90;101875.00;;;;2079656;28;20197;-49
2022/03/23 00:28:43;;;;;;;40.50;34.40;;;;;21.90;101878.00;;;;2079779;28;20689;-49
2022/03/23 00:29:43;;;;;;;39.47;33.40;;;;;21.90;101882.00;;;;2079947;28;20206;-49
2022/03/23 00:30:44;;;;;;;35.40;31.50;;;;;21.90;101878.00;;;;2076081;28;20967;-48
2022/03/23 00:31:44;;;;;;;35.73;29.97;;;;;21.90;101886.00;;;;2077305;28;20305;-49
2022/03/23 00:32:45;;;;;;;41.50;34.37;;;;;21.90;101879.00;;;;2071613;28;20213;-48
2022/03/23 00:33:45;;;;;;;35.93;31.17;;;;;21.90;101874.00;;;;2069715;28;20290;-49
2022/03/23 00:34:48;;;;;;;36.80;31.50;;;;;21.90;101879.00;;;;2071627;28;20214;-48
2022/03/23 00:35:49;;;;;;;33.40;29.05;;;;;21.90;101880.00;;;;2070250;28;20218;-50
2022/03/23 00:36:50;;;;;;;41.70;31.70;;;;;21.90;101875.00;;;;2063132;28;20226;-49
2022/03/23 00:37:51;;;;;;;33.77;30.07;;;;;21.90;101881.00;;;;2070673;28;20293;-49
2022/03/23 00:38:53;;;;;;;32.43;28.40;;;;;21.90;101869.00;;;;2071780;28;20261;-49
2022/03/23 00:39:54;;;;;;;36.22;30.60;;;;;21.90;101875.00;;;;2078470;28;20301;-49
2022/03/23 00:40:55;;;;;;;32.75;28.90;;;;;21.90;101876.00;;;;2075531;28;20317;-48
2022/03/23 00:41:56;;;;;;;35.23;30.27;;;;;21.90;101877.00;;;;2071730;28;20280;-49
2022/03/23 00:42:58;;;;;;;32.03;28.17;;;;;21.90;101872.00;;;;2071599;28;20461;-49
2022/03/23 00:43:58;;;;;;;35.35;30.80;;;;;21.90;101875.00;;;;2070988;28;20280;-51
2022/03/23 00:44:58;;;;;;;35.93;31.47;;;;;21.80;101876.00;;;;2070685;28;20706;-50
2022/03/23 00:45:59;;;;;;;31.60;27.97;;;;;21.90;101879.00;;;;2075206;28;20210;-49
2022/03/23 00:46:59;;;;;;;33.43;28.43;;;;;21.80;101871.00;;;;2079649;28;20272;-49
2022/03/23 00:48:00;;;;;;;32.97;28.23;;;;;21.80;101874.00;;;;2072713;28;20457;-49
2022/03/23 00:49:00;;;;;;;30.60;26.40;;;;;21.80;101877.00;;;;2071441;28;20212;-49
2022/03/23 00:50:01;;;;;;;35.50;28.67;;;;;21.80;101872.00;;;;2071267;28;20217;-49
2022/03/23 00:51:01;;;;;;;33.43;28.50;;;;;21.80;101879.00;;;;2071584;28;20679;-49
2022/03/23 00:52:05;;;;;;;28.30;25.30;;;;;21.90;101870.00;;;;2078223;28;20202;-49
2022/03/23 00:53:06;;;;;;;28.98;25.73;;;;;21.90;101870.00;;;;2079596;28;20244;-49
2022/03/23 00:54:09;;;;;;;27.85;24.85;;;;;21.80;101863.00;;;;2073376;28;20222;-49
2022/03/23 00:55:10;;;;;;;30.63;24.92;;;;;21.80;101864.00;;;;2070801;28;20206;-49
2022/03/23 00:56:11;;;;;;;30.33;26.43;;;;;21.80;101870.00;;;;2069642;28;20297;-49
2022/03/23 00:57:11;;;;;;;30.50;24.40;;;;;21.80;101873.00;;;;2065672;28;20292;-48
2022/03/23 00:58:11;;;;;;;27.53;24.33;;;;;21.80;101863.00;;;;2078868;28;20316;-48
2022/03/23 00:59:13;;;;;;;29.90;25.47;;;;;21.80;101870.00;;;;2081865;28;20232;-49
2022/03/23 01:00:17;;;;;;;27.65;23.38;;;;;21.80;101871.00;;;;2079369;28;20686;-48
2022/03/23 01:01:19;;;;;;;27.90;24.90;;;;;21.80;101872.00;;;;2079443;28;20209;-49
2022/03/23 01:02:20;;;;;;;28.52;23.45;;;;;21.80;101871.00;;;;2072758;28;20202;-48
2022/03/23 01:03:20;;;;;;;28.00;23.23;;;;;21.80;101872.00;;;;2074107;28;20222;-49
2022/03/23 01:04:21;;;;;;;27.93;24.93;;;;;21.80;101863.00;;;;2079302;28;20222;-49
2022/03/23 01:05:21;;;;;;;25.60;22.77;;;;;21.80;101861.00;;;;2078918;28;20607;-49
2022/03/23 01:06:22;;;;;;;26.23;23.27;;;;;21.80;101873.00;;;;2079042;28;20305;-49
2022/03/23 01:07:22;;;;;;;23.63;21.00;;;;;21.80;101869.00;;;;2079306;28;20263;-48
2022/03/23 01:08:22;;;;;;;26.40;23.27;;;;;21.80;101863.00;;;;2079124;28;20244;-49
2022/03/23 01:09:24;;;;;;;26.30;22.40;;;;;21.80;101863.00;;;;2071378;28;20215;-49
2022/03/23 01:10:24;;;;;;;24.98;22.25;;;;;21.80;101853.00;;;;2070574;28;20229;-48
2022/03/23 01:11:25;;;;;;;27.93;23.73;;;;;21.80;101864.00;;;;2070564;28;20280;-49
2022/03/23 01:12:25;;;;;;;23.63;21.13;;;;;21.80;101861.00;;;;2071301;28;20797;-49
2022/03/23 01:13:25;;;;;;;24.53;22.00;;;;;21.80;101865.00;;;;2071067;28;20210;-48
2022/03/23 01:14:26;;;;;;;23.57;21.07;;;;;21.80;101862.00;;;;2071211;28;20268;-49
2022/03/23 01:15:28;;;;;;;22.20;19.90;;;;;21.80;101871.00;;;;2070557;28;20729;-48
2022/03/23 01:16:28;;;;;;;24.60;22.00;;;;;21.80;101875.00;;;;2071315;28;20213;-48
2022/03/23 01:17:29;;;;;;;22.77;19.90;;;;;21.70;101857.00;;;;2074219;28;20217;-49
2022/03/23 01:18:29;;;;;;;24.07;21.50;;;;;21.70;101862.00;;;;2078830;28;20206;-49
2022/03/23 01:19:29;;;;;;;21.57;19.30;;;;;21.70;101860.00;;;;2079466;28;20256;-49
2022/03/23 01:20:31;;;;;;;22.30;19.90;;;;;21.80;101860.00;;;;2078580;28;20225;-49
2022/03/23 01:21:31;;;;;;;23.42;20.92;;;;;21.70;101870.00;;;;2070355;28;20206;-48
2022/03/23 01:22:31;;;;;;;24.27;20.17;;;;;21.70;101859.00;;;;2078727;28;20288;-49
2022/03/23 01:23:32;;;;;;;22.90;20.43;;;;;21.80;101861.00;;;;2079259;28;20226;-49
2022/03/23 01:24:32;;;;;;;23.43;20.93;;;;;21.70;101855.00;;;;2079281;28;20221;-49
2022/03/23 01:25:33;;;;;;;21.83;19.60;;;;;21.70;101865.00;;;;2077556;28;20222;-48
2022/03/23 01:26:33;;;;;;;21.97;19.87;;;;;21.70;101863.00;;;;2079475;28;20221;-49
2022/03/23 01:27:37;;;;;;;21.93;17.90;;;;;21.70;101858.00;;;;2079089;28;20213;-49
2022/03/23 01:28:37;;;;;;;21.20;19.00;;;;;21.70;101859.00;;;;2078548;28;20216;-48
2022/03/23 01:29:38;;;;;;;21.57;19.03;;;;;21.70;101861.00;;;;2078712;28;20217;-49
2022/03/23 01:30:38;;;;;;;21.40;19.10;;;;;21.70;101870.00;;;;2079480;28;20267;-48
2022/03/23 01:31:38;;;;;;;23.27;19.77;;;;;21.70;101861.00;;;;2076900;28;20209;-49
2022/03/23 01:32:40;;;;;;;21.83;19.43;;;;;21.70;101863.00;;;;2072003;28;20224;-49
2022/03/23 01:33:40;;;;;;;19.80;17.73;;;;;21.70;101858.00;;;;2070175;28;20214;-49
2022/03/23 01:34:41;;;;;;;19.17;17.27;;;;;21.70;101857.00;;;;2070298;28;20609;-50
2022/03/23 01:35:41;;;;;;;19.77;17.77;;;;;21.70;101854.00;;;;2070553;28;20225;-48
2022/03/23 01:36:42;;;;;;;20.07;17.97;;;;;21.70;101854.00;;;;2070613;28;20210;-48
2022/03/23 01:37:43;;;;;;;20.40;18.23;;;;;21.70;101854.00;;;;2070315;28;20202;-49
2022/03/23 01:38:44;;;;;;;20.58;18.40;;;;;21.70;101856.00;;;;2070071;28;20776;-49
2022/03/23 01:39:44;;;;;;;19.63;17.63;;;;;21.70;101851.00;;;;2069652;28;20297;-49
2022/03/23 01:40:44;;;;;;;19.33;17.30;;;;;21.70;101852.00;;;;2070444;28;20280;-49
2022/03/23 01:41:45;;;;;;;20.40;17.90;;;;;21.70;101860.00;;;;2074696;28;20216;-48
2022/03/23 01:42:45;;;;;;;21.07;17.70;;;;;21.70;101883.00;;;;2073379;28;20275;-49
2022/03/23 01:43:46;;;;;;;20.17;16.87;;;;;21.70;101851.00;;;;2070133;28;20229;-48
2022/03/23 01:44:46;;;;;;;20.13;18.03;;;;;21.70;101864.00;;;;2069432;28;20694;-49
2022/03/23 01:45:49;;;;;;;19.53;17.43;;;;;21.70;101854.00;;;;2067020;28;20245;-48
2022/03/23 01:47:11;;;;;;;20.13;17.63;;;;;21.60;101858.00;;;;2070177;28;20271;-48
2022/03/23 01:48:11;;;;;;;18.55;16.65;;;;;21.60;101856.00;;;;2075741;28;20224;-49
2022/03/23 01:49:12;;;;;;;19.37;16.90;;;;;21.70;101877.00;;;;2071035;28;20632;-49
2022/03/23 01:50:12;;;;;;;19.17;16.70;;;;;21.60;101855.00;;;;2070990;28;20710;-48
2022/03/23 01:51:13;;;;;;;17.87;15.97;;;;;21.70;101851.00;;;;2071105;28;20694;-48
2022/03/23 01:52:15;;;;;;;17.93;16.10;;;;;21.70;101855.00;;;;2070460;28;20341;-49
2022/03/23 01:53:15;;;;;;;17.80;15.90;;;;;21.70;101854.00;;;;2070557;28;20305;-49
2022/03/23 01:54:16;;;;;;;18.10;16.20;;;;;21.70;101854.00;;;;2070328;28;20206;-48
2022/03/23 01:55:17;;;;;;;19.05;16.75;;;;;21.70;101858.00;;;;2075679;28;20205;-48
2022/03/23 01:56:18;;;;;;;17.67;15.77;;;;;21.70;101854.00;;;;2069729;28;20210;-49
2022/03/23 01:57:20;;;;;;;17.60;15.80;;;;;21.60;101855.00;;;;2070346;28;20886;-49
2022/03/23 01:58:21;;;;;;;16.15;14.65;;;;;21.70;101848.00;;;;2070464;28;20300;-49
2022/03/23 01:59:22;;;;;;;15.95;14.45;;;;;21.70;101855.00;;;;2078498;28;20210;-49
2022/03/23 02:00:26;;;;;;;17.50;15.60;;;;;21.60;101855.00;;;;2073224;28;20206;-49
2022/03/23 02:01:28;;;;;;;17.60;15.80;;;;;21.60;101849.00;;;;2070264;28;20714;-49
2022/03/23 02:02:28;;;;;;;15.95;14.30;;;;;21.60;101852.00;;;;2066448;28;20562;-49
2022/03/23 02:03:28;;;;;;;15.73;14.17;;;;;21.60;101848.00;;;;2070320;28;20241;-49
2022/03/23 02:04:29;;;;;;;15.97;14.37;;;;;21.60;101857.00;;;;2064704;28;20227;-49
2022/03/23 02:05:29;;;;;;;17.30;15.50;;;;;21.60;101860.00;;;;2068085;28;20233;-48
2022/03/23 02:06:29;;;;;;;15.40;13.80;;;;;21.60;101855.00;;;;2070334;28;20245;-49
2022/03/23 02:07:30;;;;;;;16.07;14.47;;;;;21.60;101852.00;;;;2069228;28;20697;-48
2022/03/23 02:08:30;;;;;;;16.33;14.70;;;;;21.60;101849.00;;;;2070941;28;20843;-49
2022/03/23 02:09:31;;;;;;;16.77;15.13;;;;;21.60;101846.00;;;;2070962;28;20244;-49
2022/03/23 02:10:31;;;;;;;14.60;13.10;;;;;21.60;101852.00;;;;2070570;28;20214;-48
2022/03/23 02:11:32;;;;;;;14.90;13.37;;;;;21.60;101842.00;;;;2075615;28;20244;-49
2022/03/23 02:12:33;;;;;;;16.85;15.15;;;;;21.60;101842.00;;;;2078759;28;20697;-48
2022/03/23 02:13:33;;;;;;;15.20;13.70;;;;;21.60;101853.00;;;;2078625;28;20241;-49
2022/03/23 02:14:35;;;;;;;15.53;13.97;;;;;21.60;101847.00;;;;2074368;28;21035;-51
2022/03/23 02:15:35;;;;;;;15.23;13.80;;;;;21.60;101845.00;;;;2078014;28;20217;-49
2022/03/23 02:16:46;;;;;;;15.57;13.97;;;;;21.60;101847.00;;;;2078872;28;20539;-48
2022/03/23 02:17:47;;;;;;;15.25;13.75;;;;;21.60;101849.00;;;;2078416;28;20216;-49
2022/03/23 02:18:48;;;;;;;16.42;13.80;;;;;21.60;101849.00;;;;2077770;28;20210;-48
2022/03/23 02:19:48;;;;;;;15.47;13.97;;;;;21.60;101845.00;;;;2075418;28;20223;-48
2022/03/23 02:20:48;;;;;;;15.83;14.20;;;;;21.60;101850.00;;;;2076201;28;20221;-48
2022/03/23 02:21:52;;;;;;;14.90;13.27;;;;;21.60;101836.00;;;;2078773;28;20297;-49
2022/03/23 02:22:53;;;;;;;14.88;13.48;;;;;21.60;101851.00;;;;2070057;28;20241;-49
2022/03/23 02:23:54;;;;;;;14.55;13.15;;;;;21.60;101854.00;;;;2070291;28;20706;-48
2022/03/23 02:24:54;;;;;;;15.20;13.73;;;;;21.60;101853.00;;;;2078910;28;20205;-48
2022/03/23 02:26:00;;;;;;;15.20;13.13;;;;;21.50;101850.00;;;;2078477;28;20218;-48
2022/03/23 02:27:00;;;;;;;14.00;12.60;;;;;21.60;101848.00;;;;2078771;28;20233;-49
2022/03/23 02:28:01;;;;;;;15.37;13.87;;;;;21.50;101853.00;;;;2078556;28;20569;-48
2022/03/23 02:29:01;;;;;;;13.23;11.83;;;;;21.50;101856.00;;;;2067503;28;20358;-48
2022/03/23 02:30:06;;;;;;;14.43;13.03;;;;;21.50;101856.00;;;;2069075;28;25052;-49
2022/03/23 02:31:07;;;;;;;13.88;12.57;;;;;21.50;101852.00;;;;2078611;28;20579;-49
2022/03/23 02:32:08;;;;;;;14.43;13.10;;;;;21.50;101843.00;;;;2072494;28;20719;-49
2022/03/23 02:33:09;;;;;;;13.80;12.50;;;;;21.30;101847.00;;;;2068129;28;20293;-48
2022/03/23 02:34:10;;;;;;;14.07;12.68;;;;;21.50;101852.00;;;;2084257;28;20231;-48
2022/03/23 02:35:13;;;;;;;14.40;13.00;;;;;21.50;101849.00;;;;2079275;28;20217;-49
2022/03/23 02:36:13;;;;;;;14.13;12.73;;;;;21.50;101841.00;;;;2075021;28;20275;-49
2022/03/23 02:37:13;;;;;;;14.20;12.70;;;;;21.50;101846.00;;;;2078332;28;20217;-55
2022/03/23 02:38:16;;;;;;;13.47;12.17;;;;;21.50;101855.00;;;;2078874;28;20287;-52
2022/03/23 02:39:17;;;;;;;13.10;11.88;;;;;21.50;101844.00;;;;2078994;28;20209;-49
2022/03/23 02:40:17;;;;;;;13.40;12.00;;;;;21.50;101844.00;;;;2078898;28;20213;-48
2022/03/23 02:41:18;;;;;;;12.77;11.68;;;;;21.50;101840.00;;;;2078769;28;20233;-49
2022/03/23 02:42:18;;;;;;;13.97;12.43;;;;;21.50;101848.00;;;;2078935;28;20218;-49
2022/03/23 02:43:19;;;;;;;12.90;11.50;;;;;21.50;101841.00;;;;2074803;28;20615;-49
2022/03/23 02:44:19;;;;;;;13.57;12.30;;;;;21.50;101848.00;;;;2070491;28;20211;-49
2022/03/23 02:45:20;;;;;;;13.63;12.23;;;;;21.50;101834.00;;;;2070441;28;20241;-49
2022/03/23 02:46:20;;;;;;;12.17;11.07;;;;;21.50;101834.00;;;;2069360;28;20225;-49
2022/03/23 02:47:21;;;;;;;12.47;11.30;;;;;21.50;101837.00;;;;2077722;28;20213;-50
2022/03/23 02:48:21;;;;;;;12.60;11.40;;;;;21.50;101839.00;;;;2078763;28;20720;-49
2022/03/23 02:49:22;;;;;;;12.40;11.30;;;;;21.50;101835.00;;;;2078555;28;20300;-48
2022/03/23 02:50:22;;;;;;;13.10;11.70;;;;;21.50;101835.00;;;;2072718;28;20210;-49
2022/03/23 02:51:22;;;;;;;13.00;11.57;;;;;21.50;101832.00;;;;2070873;28;20293;-49
2022/03/23 02:52:23;;;;;;;12.73;11.60;;;;;21.50;101839.00;;;;2070483;28;20214;-49
2022/03/23 03:01:55;;;;;;;10.63;9.52;;;;;21.40;101835.00;;;;2077843;28;20213;-50
2022/03/23 03:02:55;;;;;;;12.50;11.20;;;;;21.50;101843.00;;;;2072086;28;20336;-48
2022/03/23 03:03:55;;;;;;;12.30;11.10;;;;;21.40;101835.00;;;;2077189;28;20839;-50
2022/03/23 03:04:56;;;;;;;12.47;11.37;;;;;21.00;101844.00;;;;2072558;28;20225;-49
2022/03/23 03:05:56;;;;;;;12.30;11.07;;;;;21.40;101834.00;;;;2072981;28;20256;-49
2022/03/23 03:06:58;;;;;;;12.10;10.87;;;;;21.40;101835.00;;;;2072872;28;20215;-50
2022/03/23 03:09:17;;;;;;;12.05;10.90;;;;;21.40;101841.00;;;;2076016;28;20217;-50
2022/03/23 03:10:17;;;;;;;11.10;10.10;;;;;21.40;101844.00;;;;2078209;28;20221;-50
2022/03/23 03:11:19;;;;;;;11.40;10.30;;;;;21.40;101837.00;;;;2077831;28;20245;-50
2022/03/23 03:12:19;;;;;;;11.75;10.65;;;;;21.40;101840.00;;;;2077692;28;20296;-52
2022/03/23 03:13:19;;;;;;;11.80;10.70;;;;;21.40;101844.00;;;;2077981;28;20214;-51
2022/03/23 03:14:20;;;;;;;11.47;10.47;;;;;21.40;101836.00;;;;2078041;28;20244;-49
2022/03/23 03:15:20;;;;;;;12.10;10.90;;;;;21.40;101834.00;;;;2075188;28;20206;-49
2022/03/23 03:16:21;;;;;;;11.57;10.40;;;;;21.40;101836.00;;;;2071498;28;20243;-49
2022/03/23 03:17:21;;;;;;;11.07;10.07;;;;;21.40;101841.00;;;;2071426;28;20249;-49
2022/03/23 03:18:22;;;;;;;11.30;10.10;;;;;21.40;101842.00;;;;2070083;28;20225;-49
2022/03/23 03:19:22;;;;;;;12.17;11.00;;;;;21.40;101841.00;;;;2070118;28;20218;-49
2022/03/23 03:20:23;;;;;;;11.90;10.73;;;;;21.40;101844.00;;;;2070161;28;20203;-49
2022/03/23 03:21:23;;;;;;;12.23;11.13;;;;;21.40;101838.00;;;;2070104;28;20225;-49
2022/03/23 03:22:25;;;;;;;11.77;10.70;;;;;21.40;101842.00;;;;2070043;28;20211;-49
2022/03/23 03:23:25;;;;;;;10.93;9.85;;;;;21.40;101851.00;;;;2069938;28;20288;-50
2022/03/23 03:24:27;;;;;;;11.03;9.93;;;;;21.40;101845.00;;;;2069269;28;20214;-49
2022/03/23 03:25:27;;;;;;;11.20;10.20;;;;;21.40;101848.00;;;;2075613;28;20220;-49
2022/03/23 03:26:30;;;;;;;12.40;11.20;;;;;21.40;101850.00;;;;2077903;28;20577;-49
2022/03/23 03:27:33;;;;;;;11.48;10.48;;;;;21.40;101842.00;;;;2077795;28;20681;-49
2022/03/23 03:28:37;;;;;;;11.38;10.38;;;;;21.40;101849.00;;;;2078207;28;20217;-49
2022/03/23 03:29:37;;;;;;;12.68;10.88;;;;;21.40;101858.00;;;;2077271;28;20209;-49
2022/03/23 03:30:38;;;;;;;10.63;9.73;;;;;21.40;101845.00;;;;2077792;28;20764;-49
2022/03/23 03:31:38;;;;;;;11.77;10.03;;;;;21.40;101843.00;;;;2078544;28;20681;-49
2022/03/23 03:32:38;;;;;;;12.20;11.10;;;;;21.40;101849.00;;;;2078084;28;20228;-49
2022/03/23 03:33:39;;;;;;;11.70;10.50;;;;;21.40;101856.00;;;;2078179;28;20236;-49
2022/03/23 03:34:39;;;;;;;11.00;10.00;;;;;21.40;101847.00;;;;2078089;28;20580;-50
2022/03/23 03:35:40;;;;;;;10.80;9.80;;;;;21.40;101845.00;;;;2077389;28;20301;-49
2022/03/23 03:36:41;;;;;;;11.43;10.33;;;;;21.40;101851.00;;;;2078064;28;20243;-50
2022/03/23 03:37:41;;;;;;;10.00;9.10;;;;;21.40;101837.00;;;;2077172;28;20206;-50
2022/03/23 03:38:42;;;;;;;11.80;10.63;;;;;21.20;101849.00;;;;2068512;28;25219;-50
2022/03/23 03:39:42;;;;;;;10.97;9.97;;;;;21.40;101849.00;;;;2073774;28;20244;-48
2022/03/23 03:40:42;;;;;;;10.50;9.40;;;;;21.30;101847.00;;;;2078188;28;20241;-49
2022/03/23 03:41:43;;;;;;;11.37;10.30;;;;;21.30;101851.00;;;;2072392;28;20284;-50
2022/03/23 03:42:43;;;;;;;11.30;10.30;;;;;21.40;101850.00;;;;2071478;28;20376;-50
2022/03/23 03:43:44;;;;;;;10.97;9.87;;;;;21.40;101848.00;;;;2071345;28;20306;-50
2022/03/23 03:44:45;;;;;;;10.50;9.53;;;;;21.30;101849.00;;;;2076615;28;21009;-48
2022/03/23 03:45:45;;;;;;;11.10;10.10;;;;;21.30;101845.00;;;;2079247;28;20564;-47
2022/03/23 03:46:46;;;;;;;10.60;9.50;;;;;21.30;101853.00;;;;2079706;28;20217;-50
2022/03/23 03:47:46;;;;;;;10.57;9.60;;;;;21.30;101847.00;;;;2079370;28;20224;-48
2022/03/23 03:48:47;;;;;;;13.63;10.50;;;;;21.30;101844.00;;;;2079802;28;20209;-50
2022/03/23 03:49:47;;;;;;;11.13;10.00;;;;;21.30;101850.00;;;;2080034;28;20209;-49
2022/03/23 03:50:47;;;;;;;10.40;9.30;;;;;21.30;101850.00;;;;2080332;28;20217;-49
2022/03/23 03:51:48;;;;;;;10.63;9.63;;;;;21.30;101856.00;;;;2080364;28;20705;-48
2022/03/23 03:52:48;;;;;;;10.50;9.50;;;;;21.30;101856.00;;;;2080453;28;20225;-49
2022/03/23 03:53:49;;;;;;;10.00;9.20;;;;;21.30;101846.00;;;;2080246;28;20222;-49
2022/03/23 03:54:49;;;;;;;10.83;9.80;;;;;21.30;101852.00;;;;2077029;28;20229;-49
2022/03/23 03:55:49;;;;;;;10.17;9.27;;;;;21.30;101851.00;;;;2071471;28;20461;-49
2022/03/23 03:56:50;;;;;;;10.03;9.20;;;;;21.30;101848.00;;;;2071944;28;20221;-48
2022/03/23 03:57:50;;;;;;;10.20;9.30;;;;;21.30;101845.00;;;;2072278;28;20214;-48
2022/03/23 03:58:51;;;;;;;10.13;9.10;;;;;21.30;101853.00;;;;2071752;28;20236;-49
2022/03/23 03:59:51;;;;;;;9.80;8.90;;;;;21.30;101855.00;;;;2071793;28;20280;-49
2022/03/23 04:00:51;;;;;;;11.07;10.07;;;;;21.30;101857.00;;;;2075967;28;20260;-49
2022/03/23 04:01:52;;;;;;;10.90;10.00;;;;;21.30;101856.00;;;;2079569;28;20221;-49
2022/03/23 04:02:52;;;;;;;10.57;9.67;;;;;21.30;101853.00;;;;2079446;28;20217;-48
2022/03/23 04:03:52;;;;;;;10.07;9.07;;;;;21.30;101848.00;;;;2079591;28;20233;-49
2022/03/23 04:04:53;;;;;;;9.97;8.97;;;;;21.30;101861.00;;;;2078581;28;20304;-49
2022/03/23 04:05:53;;;;;;;10.50;9.60;;;;;21.30;101851.00;;;;2078753;28;20226;-48
2022/03/23 04:06:53;;;;;;;11.00;10.07;;;;;21.30;101853.00;;;;2078237;28;20228;-48
2022/03/23 04:07:55;;;;;;;11.67;9.83;;;;;21.30;101853.00;;;;2079934;28;20256;-49
2022/03/23 04:08:55;;;;;;;9.75;8.85;;;;;21.00;101853.00;;;;2078992;28;20642;-49
2022/03/23 04:09:56;;;;;;;9.67;8.77;;;;;21.30;101851.00;;;;2070808;28;20249;-49
2022/03/23 04:10:56;;;;;;;9.97;9.00;;;;;21.30;101852.00;;;;2078722;28;20229;-49
2022/03/23 04:11:56;;;;;;;11.30;10.30;;;;;21.30;101852.00;;;;2079527;28;20693;-49
2022/03/23 04:12:57;;;;;;;10.57;9.57;;;;;21.30;101861.00;;;;2078794;28;20669;-49
2022/03/23 04:13:57;;;;;;;10.40;9.37;;;;;21.30;101849.00;;;;2079056;28;20309;-49
2022/03/23 04:14:58;;;;;;;10.47;9.57;;;;;21.30;101860.00;;;;2079274;28;20228;-51
2022/03/23 04:15:58;;;;;;;10.60;9.50;;;;;21.30;101851.00;;;;2078350;28;20643;-49
2022/03/23 04:16:59;;;;;;;10.07;9.17;;;;;21.30;101858.00;;;;2079226;28;20681;-49
2022/03/23 04:17:59;;;;;;;10.00;9.10;;;;;21.30;101851.00;;;;2079215;28;20236;-49
2022/03/23 04:19:00;;;;;;;9.53;8.63;;;;;21.30;101850.00;;;;2079598;28;20963;-49
2022/03/23 04:20:00;;;;;;;9.87;8.97;;;;;21.30;101860.00;;;;2076850;28;20610;-49
2022/03/23 04:21:00;;;;;;;10.17;9.30;;;;;21.20;101858.00;;;;2071232;28;20218;-49
2022/03/23 04:22:01;;;;;;;9.53;8.70;;;;;21.20;101856.00;;;;2071117;28;20234;-49
2022/03/23 04:23:01;;;;;;;9.20;8.40;;;;;21.20;101859.00;;;;2071312;28;20222;-49
2022/03/23 04:24:01;;;;;;;10.43;9.43;;;;;21.20;101862.00;;;;2071841;28;20221;-49
2022/03/23 04:25:02;;;;;;;10.67;9.60;;;;;21.20;101869.00;;;;2071255;28;20238;-49
2022/03/23 04:26:02;;;;;;;10.50;9.40;;;;;21.20;101863.00;;;;2070788;28;20222;-49
2022/03/23 04:27:03;;;;;;;9.77;8.87;;;;;21.20;101869.00;;;;2071474;28;20218;-50
2022/03/23 04:28:03;;;;;;;9.93;9.07;;;;;21.20;101859.00;;;;2071662;28;20636;-50
2022/03/23 04:29:03;;;;;;;10.33;9.40;;;;;21.20;101863.00;;;;2071752;28;20297;-49
2022/03/23 04:30:04;;;;;;;10.80;9.80;;;;;21.20;101870.00;;;;2071939;28;20237;-49
2022/03/23 04:31:06;;;;;;;11.07;9.97;;;;;21.20;101802.00;;;;2071780;28;20215;-49
2022/03/23 04:32:07;;;;;;;9.70;8.80;;;;;21.20;101859.00;;;;2071530;28;21051;-49
2022/03/23 04:33:08;;;;;;;10.60;9.23;;;;;21.20;101862.00;;;;2071716;28;20232;-49
2022/03/23 04:34:09;;;;;;;10.00;9.10;;;;;21.20;101870.00;;;;2071618;28;20311;-49
2022/03/23 04:35:10;;;;;;;9.52;8.65;;;;;21.20;101870.00;;;;2071500;28;20206;-48
2022/03/23 04:36:11;;;;;;;9.77;8.87;;;;;21.20;101864.00;;;;2071179;28;20694;-48
2022/03/23 04:37:11;;;;;;;9.90;9.00;;;;;21.20;101869.00;;;;2071565;28;20264;-49
2022/03/23 04:38:11;;;;;;;8.80;8.00;;;;;21.20;101870.00;;;;2071624;28;20862;-48
2022/03/23 04:39:11;;;;;;;9.83;8.93;;;;;21.20;101862.00;;;;2071763;28;20562;-50
2022/03/23 04:40:14;;;;;;;9.40;8.57;;;;;21.20;101870.00;;;;2071673;28;20252;-50
2022/03/23 04:41:14;;;;;;;9.77;8.88;;;;;21.20;101855.00;;;;2074982;28;20320;-51
2022/03/23 04:42:14;;;;;;;9.40;8.60;;;;;21.20;101869.00;;;;2079703;28;20672;-50
2022/03/23 04:43:16;;;;;;;9.93;9.10;;;;;21.20;101864.00;;;;2079864;28;20209;-50
2022/03/23 04:44:16;;;;;;;9.73;8.77;;;;;21.20;101871.00;;;;2079636;28;20217;-51
2022/03/23 04:45:17;;;;;;;9.47;8.67;;;;;21.20;101870.00;;;;2079562;28;20206;-48
2022/03/23 04:46:17;;;;;;;10.10;9.10;;;;;21.20;101871.00;;;;2079343;28;20709;-50
2022/03/23 04:47:17;;;;;;;10.00;9.10;;;;;21.20;101870.00;;;;2079315;28;20263;-50
2022/03/23 04:48:18;;;;;;;8.93;8.20;;;;;21.20;101883.00;;;;2077858;28;20622;-49
2022/03/23 04:49:19;;;;;;;10.20;9.27;;;;;21.20;101882.00;;;;2079677;28;20222;-50
2022/03/23 04:50:20;;;;;;;9.07;8.27;;;;;21.20;101878.00;;;;2079412;28;20205;-50
2022/03/23 04:51:20;;;;;;;10.03;9.07;;;;;21.20;101879.00;;;;2071756;28;20301;-49
2022/03/23 04:52:21;;;;;;;9.57;8.70;;;;;21.10;101870.00;;;;2071890;28;20570;-50
2022/03/23 04:53:21;;;;;;;9.30;8.50;;;;;21.20;101875.00;;;;2073666;28;20655;-50
2022/03/23 04:54:21;;;;;;;8.83;8.03;;;;;21.20;101878.00;;;;2079228;28;20217;-50
2022/03/23 04:55:22;;;;;;;9.60;8.70;;;;;21.10;101874.00;;;;2075920;28;20209;-50
2022/03/23 04:56:22;;;;;;;9.00;8.20;;;;;21.10;101872.00;;;;2079534;28;20209;-48
2022/03/23 04:57:23;;;;;;;9.23;8.43;;;;;21.10;101881.00;;;;2078826;28;20284;-50
2022/03/23 04:58:25;;;;;;;9.25;8.40;;;;;21.10;101876.00;;;;2079077;28;20218;-50
2022/03/23 04:59:26;;;;;;;8.57;7.88;;;;;21.10;101886.00;;;;2079701;28;20228;-50
2022/03/23 05:00:27;;;;;;;9.50;8.70;;;;;21.10;101879.00;;;;2079696;28;20331;-50
2022/03/23 05:01:27;;;;;;;9.90;9.00;;;;;21.10;101882.00;;;;2076652;28;20740;-50
2022/03/23 05:02:27;;;;;;;9.90;8.80;;;;;21.10;101882.00;;;;2064680;28;20808;-50
2022/03/23 05:03:28;;;;;;;9.47;8.67;;;;;21.10;101876.00;;;;2065351;28;20272;-50
2022/03/23 05:04:29;;;;;;;9.50;8.70;;;;;21.10;101881.00;;;;2071463;28;20218;-49